Terminal Aerodrome Forecast
Issued by NWS Indianapolis, IN

Home | Current Version | Previous Version | Text Only | Print | Product List | Glossary On
Versions: 1 2 3 4 5 6 7 8 9 10 11 12 13 14 15 16 17 18 19 20 21 22 23 24 25 26 27
000
FTUS43 KIND 300500
TAFIND
TAF
KIND 300522Z 3006/3112 19007KT P6SM SCT080
     FM301400 12010KT P6SM VCSH BKN040
     FM301600 20012G20KT P6SM VCTS SCT040CB BKN080
     FM310100 14010KT 4SM SHRA BR VCTS BKN020CB
     FM310800 03010KT 3SM -RA BR OVC010=

USA.gov is the U.S. government's official web portal to all federal, state and local government web resources and services.